25°F Temp
19°F Dewpoint
80% Humidity
Temperature
7 MPH
11 KM/H
6 KTS
200°
South South
West

Wind Speed
Overcast
Conditions
Pressure 1024.9 (hPa) - 30.23 (in)
Visibility 8.0 (mi) - 12.9 (km)

Current Conditions
KCLE
Location Cleveland-Hopkins International 38(mi)
Metar :KCLE 150951Z 20006KT 8SM OVC019 M04/M07 A3023 RMK AO2 SLP249 T10441072
Tue 15th January 04:51 am

Airport
  Metar Aviation API Data Provided by https://www.checkwx.com/ PHP scripts by weather34.com ©2019